Terminal Aerodrome Forecast
Issued by NWS

Home | Current Version | Previous Version | Text Only | Print | Product List | Glossary On
Versions: 1 2 3 4 5 6 7 8 9 10 11 12 13
000
FTUS43 KPAH 031720
TAFCGI
TAF
KCGI 031720Z 0318/0418 28007KT P6SM FEW050 SCT250
     FM040100 00000KT P6SM FEW060 SCT250
     FM040800 00000KT 4SM BR FEW070 BKN250
     FM041300 VRB03KT P6SM SCT040 BKN250=

USA.gov is the U.S. government's official web portal to all federal, state and local government web resources and services.